Time;durP1;ratioP1;P1;durP2;ratioP2;P2;SDS_P1;SDS_P2;PMS_P1;PMS_P2;Temp;Humidity;BMP_temperature;BMP_pressure;BME280_temperature;BME280_humidity;BME280_pressure;Samples;Min_cycle;Max_cycle;Signal;HPM_P1;HPM_P2
2023/01/13 00:12:57;;;;;;;1.92;0.82;;;;;;;8.93;100.00;99707.72;4986072;28;20145;-64
2023/01/13 00:19:50;;;;;;;0.93;0.70;;;;;;;8.88;100.00;99698.34;4986933;28;20128;-66
2023/01/13 00:22:17;;;;;;;2.00;0.88;;;;;;;8.94;100.00;99719.88;4988064;28;20057;-65
2023/01/13 00:33:37;;;;;;;1.13;0.70;;;;;;;8.93;100.00;99703.28;4989202;28;20049;-63
2023/01/13 00:36:06;;;;;;;2.45;0.60;;;;;;;8.98;100.00;99692.50;4985518;28;20138;-63
2023/01/13 01:31:37;;;;;;;1.67;0.65;;;;;;;9.03;100.00;99703.50;4993395;28;20108;-64
2023/01/13 01:34:04;;;;;;;2.88;0.70;;;;;;;9.02;100.00;99701.84;4996144;28;20066;-63
2023/01/13 01:36:33;;;;;;;1.02;0.60;;;;;;;8.99;100.00;99696.78;4990621;28;20141;-64
2023/01/13 02:04:19;;;;;;;1.25;0.60;;;;;;;9.14;100.00;99680.03;4990226;28;20125;-65
2023/01/13 02:06:48;;;;;;;1.27;0.60;;;;;;;9.15;100.00;99673.81;4979249;28;20073;-63
2023/01/13 02:09:16;;;;;;;4.05;0.70;;;;;;;9.19;100.00;99680.53;4992800;28;20054;-64
2023/01/13 02:31:59;;;;;;;0.98;0.88;;;;;;;9.21;100.00;99670.75;4991037;28;20058;-64
2023/01/13 02:38:51;;;;;;;0.98;0.40;;;;;;;9.21;100.00;99656.78;4991909;28;20547;-63
2023/01/13 02:53:27;;;;;;;0.60;0.38;;;;;;;9.15;100.00;99654.59;4926503;29;20433;-64
2023/01/13 02:55:56;;;;;;;1.67;0.50;;;;;;;9.18;100.00;99651.75;4971692;28;20073;-64
2023/01/13 02:58:26;;;;;;;1.48;0.40;;;;;;;9.17;100.00;99660.56;4955813;28;20585;-63
2023/01/13 03:00:55;;;;;;;0.57;0.30;;;;;;;9.20;100.00;99649.88;4956489;28;20097;-65
2023/01/13 03:12:12;;;;;;;0.50;0.50;;;;;;;9.11;100.00;99646.91;4993466;28;20414;-62
2023/01/13 03:14:48;;;;;;;2.40;0.57;;;;;;;9.11;100.00;99652.16;4971359;28;20054;-64
2023/01/13 03:17:25;;;;;;;0.70;0.43;;;;;;;9.14;100.00;99653.75;4954240;28;20168;-64
2023/01/13 03:24:39;;;;;;;1.17;0.47;;;;;;;9.18;100.00;99636.81;4986304;28;20077;-64
2023/01/13 03:57:21;;;;;;;1.20;0.60;;;;;;;9.14;100.00;99630.13;4993435;28;20438;-63
2023/01/13 04:35:14;;;;;;;0.93;0.50;;;;;;;9.04;100.00;99629.91;4994985;28;20140;-66
2023/01/13 04:37:42;;;;;;;0.30;0.30;;;;;;;9.05;100.00;99635.97;4994480;28;20066;-63
2023/01/13 04:40:09;;;;;;;0.85;0.40;;;;;;;9.03;100.00;99636.09;4990562;28;20092;-64
2023/01/13 04:42:36;;;;;;;2.22;0.50;;;;;;;9.07;100.00;99632.31;4985931;28;20068;-63
2023/01/13 04:45:04;;;;;;;1.58;0.50;;;;;;;9.03;100.00;99627.38;4992167;28;20051;-64
2023/01/13 04:47:31;;;;;;;0.70;0.43;;;;;;;9.00;100.00;99635.47;4989051;28;20068;-64
2023/01/13 04:49:58;;;;;;;0.30;0.30;;;;;;;9.03;100.00;99620.34;4975355;28;20066;-65
2023/01/13 04:52:25;;;;;;;1.05;0.52;;;;;;;9.06;100.00;99643.78;4988005;28;20544;-63
2023/01/13 04:54:52;;;;;;;1.23;0.43;;;;;;;9.06;100.00;99640.31;4993194;28;20076;-62
2023/01/13 04:57:20;;;;;;;0.80;0.35;;;;;;;9.08;100.00;99635.78;4976250;28;20078;-64
2023/01/13 04:59:47;;;;;;;0.43;0.30;;;;;;;9.05;100.00;99638.59;4991565;28;20056;-63
2023/01/13 06:52:46;;;;;;;3.20;0.65;;;;;;;9.26;100.00;99671.28;4984115;28;20628;-63
2023/01/13 06:55:13;;;;;;;1.33;0.77;;;;;;;9.26;100.00;99676.53;4990270;28;20046;-63
2023/01/13 06:57:52;;;;;;;1.27;0.80;;;;;;;9.27;100.00;99648.47;4990779;28;20049;-63
2023/01/13 07:00:21;;;;;;;1.15;0.68;;;;;;;9.28;100.00;99664.16;4986539;28;20046;-63
2023/01/13 07:02:48;;;;;;;2.72;0.80;;;;;;;9.33;100.00;99676.97;4986779;28;20058;-63
2023/01/13 07:05:16;;;;;;;1.17;0.80;;;;;;;9.29;100.00;99683.38;4987515;28;20054;-63
2023/01/13 07:07:44;;;;;;;0.70;0.55;;;;;;;9.28;100.00;99679.91;4978707;28;20078;-63
2023/01/13 07:10:13;;;;;;;1.88;0.93;;;;;;;9.29;100.00;99678.97;4984064;28;20102;-62
2023/01/13 07:25:33;;;;;;;0.98;0.40;;;;;;;9.25;100.00;99661.72;4965488;28;20121;-76
2023/01/13 07:28:00;;;;;;;1.73;0.80;;;;;;;9.31;100.00;99637.66;4933024;28;20140;-77
2023/01/13 07:30:28;;;;;;;1.27;0.73;;;;;;;9.33;100.00;99643.66;4951307;28;20105;-78
2023/01/13 07:32:55;;;;;;;1.52;0.57;;;;;;;9.31;100.00;99656.03;4949836;28;20122;-77
2023/01/13 07:35:23;;;;;;;2.05;0.98;;;;;;;9.30;100.00;99682.41;4952918;28;20069;-78
2023/01/13 07:37:51;;;;;;;1.13;0.50;;;;;;;9.30;100.00;99672.75;4964284;28;20089;-77
2023/01/13 07:40:19;;;;;;;3.42;0.77;;;;;;;9.31;100.00;99657.81;4947030;28;20414;-77
2023/01/13 07:45:32;;;;;;;1.80;0.70;;;;;;;9.36;99.65;99687.25;4951157;28;20054;-77
2023/01/13 07:48:00;;;;;;;1.95;0.70;;;;;;;9.39;99.24;99672.13;4937890;28;20163;-76
2023/01/13 07:50:27;;;;;;;2.03;0.77;;;;;;;9.37;99.21;99681.91;4952834;28;20548;-76
2023/01/13 07:52:57;;;;;;;1.83;0.70;;;;;;;9.36;98.02;99687.25;4966507;28;20413;-77
2023/01/13 07:55:24;;;;;;;0.93;0.60;;;;;;;9.35;98.34;99694.28;4945528;28;20066;-77
2023/01/13 07:57:52;;;;;;;2.15;0.60;;;;;;;9.36;97.82;99700.38;4961042;28;20047;-76
2023/01/13 08:00:23;;;;;;;1.73;0.50;;;;;;;9.35;97.90;99706.59;4960297;28;20046;-77
2023/01/13 08:02:51;;;;;;;2.05;0.90;;;;;;;9.36;97.06;99697.75;4952680;28;20038;-78
2023/01/13 08:05:19;;;;;;;1.90;0.65;;;;;;;9.36;96.74;99687.25;4931997;28;20061;-75
2023/01/13 08:07:46;;;;;;;0.50;0.50;;;;;;;9.39;96.61;99705.44;4931280;28;20074;-74
2023/01/13 08:10:14;;;;;;;2.65;0.90;;;;;;;9.41;95.74;99706.19;4965576;28;20046;-77
2023/01/13 08:15:31;;;;;;;1.60;0.60;;;;;;;9.41;94.59;99736.84;4962447;28;20055;-77
2023/01/13 08:17:59;;;;;;;2.33;0.70;;;;;;;9.33;93.60;99729.50;4950020;28;20388;-75
2023/01/13 08:20:26;;;;;;;1.10;0.70;;;;;;;9.34;93.98;99732.00;4947715;28;20039;-76
2023/01/13 08:22:58;;;;;;;1.67;0.60;;;;;;;9.30;92.76;99725.28;4953418;28;20129;-76
2023/01/13 08:25:27;;;;;;;3.42;0.90;;;;;;;9.26;92.35;99746.59;4953708;28;20081;-77
2023/01/13 08:27:56;;;;;;;3.30;0.80;;;;;;;9.23;92.29;99752.06;4952307;28;20371;-74
2023/01/13 08:30:23;;;;;;;2.80;0.80;;;;;;;9.30;93.44;99759.44;4968376;28;20134;-75
2023/01/13 08:32:51;;;;;;;1.48;0.63;;;;;;;9.19;92.96;99748.81;4967458;28;20068;-77
2023/01/13 08:35:19;;;;;;;1.15;0.55;;;;;;;9.14;93.82;99735.16;4933990;28;20133;-77
2023/01/13 08:37:48;;;;;;;1.58;0.57;;;;;;;9.18;94.29;99728.72;4948889;28;20046;-76
2023/01/13 08:40:17;;;;;;;1.05;0.68;;;;;;;9.19;94.94;99738.31;4946371;28;20057;-77
2023/01/13 08:42:45;;;;;;;1.35;0.63;;;;;;;9.21;94.70;99736.41;4963740;28;20043;-77
2023/01/13 08:45:15;;;;;;;1.85;0.65;;;;;;;9.12;94.46;99739.66;4937253;28;20038;-76
2023/01/13 08:47:43;;;;;;;0.95;0.63;;;;;;;9.10;94.69;99745.03;4951009;28;20087;-75
2023/01/13 08:50:10;;;;;;;2.33;0.80;;;;;;;9.12;95.06;99727.38;4958139;28;20042;-75
2023/01/13 08:52:39;;;;;;;2.08;0.55;;;;;;;9.12;95.09;99718.66;4941555;28;20482;-76
2023/01/13 08:55:08;;;;;;;1.10;0.80;;;;;;;9.12;95.79;99760.66;4920770;28;20465;-77
2023/01/13 08:57:36;;;;;;;1.98;1.00;;;;;;;9.07;95.62;99781.97;4937707;28;20079;-77
2023/01/13 09:00:07;;;;;;;2.22;0.90;;;;;;;9.11;95.69;99782.63;4938414;28;20123;-79
2023/01/13 09:02:35;;;;;;;1.02;0.65;;;;;;;9.10;96.01;99779.16;4949354;28;20528;-77
2023/01/13 09:05:06;;;;;;;2.08;0.70;;;;;;;9.09;96.11;99768.72;4964300;28;20039;-75
2023/01/13 09:07:35;;;;;;;1.65;0.80;;;;;;;9.10;95.79;99779.16;4935110;28;20568;-77
2023/01/13 09:10:08;;;;;;;2.33;0.93;;;;;;;9.09;95.80;99763.47;4928593;28;20149;-77
2023/01/13 09:15:22;;;;;;;1.88;0.80;;;;;;;9.15;96.62;99691.34;4954370;28;20513;-79
2023/01/13 09:17:50;;;;;;;1.23;0.70;;;;;;;9.11;96.02;99623.28;4923043;28;20047;-76
2023/01/13 09:20:18;;;;;;;4.22;0.80;;;;;;;9.12;96.06;99605.75;4951719;28;20114;-75
2023/01/13 09:22:45;;;;;;;1.88;0.70;;;;;;;9.12;96.06;99697.66;4918740;28;20073;-77
2023/01/13 09:25:13;;;;;;;4.53;1.17;;;;;;;9.09;95.59;99738.06;4966389;28;20026;-76
2023/01/13 09:27:41;;;;;;;3.25;1.42;;;;;;;9.10;95.99;99754.69;4966881;28;20449;-77
2023/01/13 09:30:09;;;;;;;2.25;1.00;;;;;;;9.08;95.83;99767.91;4919995;28;20057;-77
2023/01/13 09:32:37;;;;;;;2.97;1.05;;;;;;;9.06;95.38;99756.66;4968670;28;20097;-78
2023/01/13 09:35:06;;;;;;;4.93;0.90;;;;;;;9.06;95.20;99750.56;4951143;28;20213;-76
2023/01/13 09:37:36;;;;;;;2.47;1.33;;;;;;;9.08;95.42;99741.63;4931551;28;20045;-77
2023/01/13 09:40:07;;;;;;;2.28;0.95;;;;;;;9.11;95.21;99741.44;4959679;28;20520;-75
2023/01/13 09:45:41;;;;;;;3.67;1.08;;;;;;;9.15;94.76;99721.09;4946666;28;20471;-76
2023/01/13 09:48:31;;;;;;;4.57;0.80;;;;;;;9.18;95.07;99709.50;4943799;28;20066;-77
2023/01/13 09:51:06;;;;;;;2.67;0.80;;;;;;;9.15;95.02;99728.13;4944679;28;20049;-78
2023/01/13 09:53:41;;;;;;;2.35;1.15;;;;;;;9.12;95.02;99731.78;4928599;28;20275;-76
2023/01/13 09:56:09;;;;;;;6.05;1.25;;;;;;;9.00;94.61;99743.94;4946115;28;20133;-75
2023/01/13 09:58:37;;;;;;;2.13;1.05;;;;;;;8.98;95.25;99752.88;4930788;28;20046;-76
2023/01/13 10:01:45;;;;;;;4.30;0.93;;;;;;;8.98;94.84;99745.81;4926472;28;20489;-77
2023/01/13 10:04:14;;;;;;;4.57;0.98;;;;;;;9.01;94.53;99757.91;4950633;28;20538;-77
2023/01/13 10:06:46;;;;;;;5.03;1.10;;;;;;;9.07;94.74;99753.09;4966371;28;20050;-75
2023/01/13 10:09:21;;;;;;;3.58;0.85;;;;;;;9.10;93.88;99758.16;4949953;28;20106;-74
2023/01/13 10:14:54;;;;;;;3.30;0.90;;;;;;;8.97;92.04;99765.16;4949530;28;20047;-77
2023/01/13 10:17:33;;;;;;;4.05;1.15;;;;;;;8.97;91.69;99757.28;4962350;28;20053;-78
2023/01/13 10:20:28;;;;;;;6.20;0.93;;;;;;;8.99;91.94;99771.13;4968813;28;20158;-77
2023/01/13 10:23:37;;;;;;;1.85;0.80;;;;;;;9.03;92.00;99772.63;4953539;28;20565;-79
2023/01/13 10:26:33;;;;;;;5.38;1.00;;;;;;;9.07;90.39;99775.88;4969497;28;20101;-77
2023/01/13 10:29:00;;;;;;;1.95;0.70;;;;;;;9.03;89.26;99764.72;4965889;28;20497;-77
2023/01/13 10:31:28;;;;;;;2.75;0.80;;;;;;;9.02;89.72;99763.06;4943199;28;20047;-77
2023/01/13 10:34:02;;;;;;;3.75;0.77;;;;;;;9.00;88.76;99775.44;4966336;28;20137;-76
2023/01/13 10:36:30;;;;;;;3.00;0.85;;;;;;;8.95;88.24;99759.16;4969391;28;20505;-75
2023/01/13 10:39:09;;;;;;;1.60;0.90;;;;;;;8.94;89.13;99756.63;4946142;28;20072;-77
2023/01/13 10:41:37;;;;;;;1.95;0.93;;;;;;;8.87;88.47;99761.44;4941278;28;20455;-76
2023/01/13 10:44:17;;;;;;;1.40;0.65;;;;;;;8.91;88.80;99770.78;4939867;28;20038;-74
2023/01/13 10:46:53;;;;;;;1.92;0.88;;;;;;;8.85;88.40;99755.44;4933361;28;20374;-77
2023/01/13 10:49:29;;;;;;;1.30;0.70;;;;;;;8.84;89.07;99748.53;4963846;28;20058;-78
2023/01/13 10:51:57;;;;;;;;;;;;;;;8.85;88.84;99756.28;4944087;28;20066;-78
2023/01/13 10:54:25;;;;;;;4.13;1.00;;;;;;;8.81;89.24;99749.56;4946409;28;19965;-78
2023/01/13 10:57:19;;;;;;;2.35;0.85;;;;;;;8.84;88.67;99767.75;4968904;28;20043;-77
2023/01/13 10:59:47;;;;;;;4.65;1.10;;;;;;;8.85;89.03;99752.81;4927405;28;20312;-75
2023/01/13 11:02:22;;;;;;;1.85;0.80;;;;;;;8.75;88.56;99754.38;4946514;28;20066;-75
2023/01/13 11:04:52;;;;;;;5.53;1.05;;;;;;;8.74;88.57;99756.16;4945249;28;20281;-76
2023/01/13 11:07:30;;;;;;;1.08;0.55;;;;;;;8.75;88.94;99749.13;4950828;28;20413;-78
2023/01/13 11:10:13;;;;;;;7.93;1.10;;;;;;;8.77;88.05;99773.47;4944003;28;20334;-77
2023/01/13 11:12:56;;;;;;;3.75;1.00;;;;;;;8.80;88.39;99761.00;4944546;28;20053;-78
2023/01/13 11:15:37;;;;;;;6.38;1.13;;;;;;;8.82;88.28;99756.47;4970321;28;20122;-76
2023/01/13 11:18:50;;;;;;;2.70;0.70;;;;;;;8.90;86.85;99761.22;4935357;28;20043;-77
2023/01/13 11:21:33;;;;;;;2.22;1.05;;;;;;;8.98;86.59;99750.25;4943226;28;20475;-77
2023/01/13 11:24:13;;;;;;;5.45;0.90;;;;;;;9.13;84.00;99749.22;4916191;28;20133;-75
2023/01/13 11:26:52;;;;;;;3.22;0.60;;;;;;;9.37;83.41;99763.34;4931137;28;20053;-77
2023/01/13 11:29:28;;;;;;;2.88;0.82;;;;;;;9.61;82.54;99759.97;4932121;28;20042;-74
2023/01/13 11:32:08;;;;;;;2.83;0.90;;;;;;;9.85;81.13;99749.53;4953508;28;20043;-78
2023/01/13 11:34:39;;;;;;;2.97;1.10;;;;;;;10.12;81.69;99758.09;4936496;28;20049;-73
2023/01/13 11:37:26;;;;;;;2.50;1.00;;;;;;;10.30;77.73;99758.63;4950779;28;20038;-75
2023/01/13 11:39:56;;;;;;;3.38;0.90;;;;;;;10.43;76.65;99753.31;4945128;28;20420;-77
2023/01/13 11:42:45;;;;;;;3.10;0.80;;;;;;;10.45;75.26;99753.25;4932797;28;20117;-75
2023/01/13 11:45:15;;;;;;;4.22;1.00;;;;;;;10.68;75.20;99767.34;4962495;28;20110;-75
2023/01/13 11:47:48;;;;;;;4.07;0.98;;;;;;;10.82;73.70;99765.38;4964683;28;20145;-77
2023/01/13 11:50:35;;;;;;;2.97;0.80;;;;;;;10.87;72.18;99744.81;4934579;28;20078;-77
2023/01/13 11:53:31;;;;;;;6.47;1.00;;;;;;;11.03;72.27;99752.44;4958194;28;20039;-79
2023/01/13 11:56:09;;;;;;;1.42;0.75;;;;;;;11.13;71.23;99753.41;4922273;28;20042;-77
2023/01/13 11:59:13;;;;;;;3.85;0.75;;;;;;;11.29;70.47;99752.25;4927221;28;20438;-78
2023/01/13 12:01:56;;;;;;;2.08;0.80;;;;;;;11.18;69.28;99768.03;4966601;28;20050;-76
2023/01/13 12:04:44;;;;;;;4.22;1.05;;;;;;;11.00;70.17;99757.09;4962266;28;20530;-76
2023/01/13 12:07:20;;;;;;;6.18;1.15;;;;;;;11.27;68.60;99756.81;4953355;28;20050;-78
2023/01/13 12:10:16;;;;;;;4.50;0.95;;;;;;;11.44;66.43;99751.09;4949790;28;20053;-77
2023/01/13 12:12:55;;;;;;;5.68;1.73;;;;;;;11.70;65.86;99817.63;4948263;28;20111;-78
2023/01/13 12:15:49;;;;;;;4.47;0.80;;;;;;;11.65;65.65;99762.59;4951571;28;20050;-79
2023/01/13 12:18:40;;;;;;;3.15;1.23;;;;;;;11.76;65.50;99750.41;4966972;28;20098;-77
2023/01/13 12:21:20;;;;;;;4.72;1.20;;;;;;;11.85;63.98;99790.13;4967100;28;20057;-76
2023/01/13 12:23:57;;;;;;;5.05;1.58;;;;;;;11.76;63.06;99758.31;4956427;28;20064;-78
2023/01/13 12:26:28;;;;;;;4.32;1.23;;;;;;;11.81;63.09;99754.34;4974039;28;20153;-76
2023/01/13 12:29:14;;;;;;;5.57;1.52;;;;;;;11.70;63.55;99756.97;4939207;28;20049;-77
2023/01/13 12:31:42;;;;;;;4.17;1.23;;;;;;;11.90;61.47;99779.22;4951580;28;20153;-77
2023/01/13 12:50:25;;;;;;;3.97;1.00;;;;;;;11.81;58.74;99775.47;4967293;28;20143;-77
2023/01/13 18:02:25;;;;;;;5.30;2.13;;;;;;;8.16;75.06;100005.47;4967210;28;20053;-76
2023/01/13 19:01:04;;;;;;;6.65;1.90;;;;;;;8.12;72.46;100031.84;4981361;28;20524;-77
2023/01/13 19:03:33;;;;;;;12.50;2.35;;;;;;;8.22;73.23;100047.03;4988891;28;20173;-76
2023/01/13 19:06:03;;;;;;;7.15;2.28;;;;;;;8.22;72.63;100047.03;4985004;28;20470;-77
2023/01/13 19:08:32;;;;;;;9.77;2.30;;;;;;;8.16;73.01;100060.50;5005727;28;20360;-78
2023/01/13 19:11:05;;;;;;;6.63;1.85;;;;;;;8.12;73.26;100060.69;5001718;28;20138;-76
2023/01/13 19:13:36;;;;;;;7.47;2.22;;;;;;;8.11;73.41;100058.16;4982714;28;20149;-78
2023/01/13 19:16:06;;;;;;;8.68;2.13;;;;;;;8.12;73.80;100057.22;5005332;28;20077;-77
2023/01/13 19:18:35;;;;;;;9.80;2.20;;;;;;;8.11;73.55;100069.50;5003426;28;20478;-78
2023/01/13 19:55:11;;;;;;;7.63;2.03;;;;;;;8.07;72.62;100095.97;4992753;28;20173;-78
2023/01/13 20:48:41;;;;;;;6.97;2.60;;;;;;;7.99;72.86;100176.81;5005435;28;20044;-77
2023/01/13 22:37:21;;;;;;;6.28;1.70;;;;;;;7.57;74.84;100252.41;5007144;28;20104;-79
2023/01/13 23:01:16;;;;;;;7.15;1.63;;;;;;;7.41;76.37;100288.16;4991946;28;20058;-77
2023/01/13 23:09:15;;;;;;;6.18;1.40;;;;;;;7.38;76.64;100303.19;4990628;28;20053;-81
2023/01/13 23:30:23;;;;;;;6.13;1.85;;;;;;;7.24;77.50;100301.25;4998737;28;20053;-79
2023/01/13 23:41:43;;;;;;;9.23;2.38;;;;;;;7.28;78.16;100305.44;4996767;28;20054;-78
2023/01/13 23:44:45;;;;;;;14.57;2.75;;;;;;;7.28;78.03;100294.97;4988516;28;20096;-78
2023/01/13 23:48:04;;;;;;;7.88;1.65;;;;;;;7.33;77.65;100306.03;4984003;28;20078;-80
2023/01/13 23:51:31;;;;;;;10.68;1.92;;;;;;;7.24;78.67;100304.72;4963253;28;20137;-79
2023/01/13 23:54:19;;;;;;;12.45;1.92;;;;;;;7.22;78.84;100305.75;4925327;28;20075;-79
